sensor_id;sensor_type;location;lat;lon;timestamp;temperature;humidity
40434;DHT22;26146;51.114;5.654;2023-03-15T00:01:31;5.50;99.90
40434;DHT22;26146;51.114;5.654;2023-03-15T00:05:33;5.40;99.90
40434;DHT22;26146;51.114;5.654;2023-03-15T00:09:38;5.30;99.90
40434;DHT22;26146;51.114;5.654;2023-03-15T00:13:39;5.30;99.90
40434;DHT22;26146;51.114;5.654;2023-03-15T00:17:44;5.40;99.90
40434;DHT22;26146;51.114;5.654;2023-03-15T00:21:45;5.40;99.90
40434;DHT22;26146;51.114;5.654;2023-03-15T00:25:47;5.50;99.90
40434;DHT22;26146;51.114;5.654;2023-03-15T00:29:49;5.50;99.90
40434;DHT22;26146;51.114;5.654;2023-03-15T00:33:51;5.30;99.90
40434;DHT22;26146;51.114;5.654;2023-03-15T00:37:57;4.80;99.90
40434;DHT22;26146;51.114;5.654;2023-03-15T00:41:58;4.70;99.90
40434;DHT22;26146;51.114;5.654;2023-03-15T00:46:02;4.70;99.90
40434;DHT22;26146;51.114;5.654;2023-03-15T00:50:04;4.70;99.90
40434;DHT22;26146;51.114;5.654;2023-03-15T00:54:11;4.80;99.90
40434;DHT22;26146;51.114;5.654;2023-03-15T00:58:13;4.80;99.90
40434;DHT22;26146;51.114;5.654;2023-03-15T01:02:14;4.80;99.90
40434;DHT22;26146;51.114;5.654;2023-03-15T01:06:18;4.70;99.90
40434;DHT22;26146;51.114;5.654;2023-03-15T01:10:20;4.70;99.90
40434;DHT22;26146;51.114;5.654;2023-03-15T01:14:21;4.60;99.90
40434;DHT22;26146;51.114;5.654;2023-03-15T01:18:24;4.60;99.90
40434;DHT22;26146;51.114;5.654;2023-03-15T01:22:26;4.60;99.90
40434;DHT22;26146;51.114;5.654;2023-03-15T01:26:27;4.70;99.90
40434;DHT22;26146;51.114;5.654;2023-03-15T01:30:28;4.60;99.90
40434;DHT22;26146;51.114;5.654;2023-03-15T01:34:28;4.70;99.90
40434;DHT22;26146;51.114;5.654;2023-03-15T01:38:30;4.70;99.90
40434;DHT22;26146;51.114;5.654;2023-03-15T01:42:31;4.70;99.90
40434;DHT22;26146;51.114;5.654;2023-03-15T01:46:32;4.60;99.90
40434;DHT22;26146;51.114;5.654;2023-03-15T01:50:35;4.50;99.90
40434;DHT22;26146;51.114;5.654;2023-03-15T01:54:44;4.50;99.90
40434;DHT22;26146;51.114;5.654;2023-03-15T01:58:46;4.30;99.90
40434;DHT22;26146;51.114;5.654;2023-03-15T02:02:53;4.30;99.90
40434;DHT22;26146;51.114;5.654;2023-03-15T02:06:57;4.10;99.90
40434;DHT22;26146;51.114;5.654;2023-03-15T02:11:02;4.10;99.90
40434;DHT22;26146;51.114;5.654;2023-03-15T02:15:05;4.00;99.90
40434;DHT22;26146;51.114;5.654;2023-03-15T02:19:22;3.90;99.90
40434;DHT22;26146;51.114;5.654;2023-03-15T02:23:28;3.90;99.90
40434;DHT22;26146;51.114;5.654;2023-03-15T02:27:32;4.00;99.90
40434;DHT22;26146;51.114;5.654;2023-03-15T02:31:34;3.90;99.90
40434;DHT22;26146;51.114;5.654;2023-03-15T02:35:37;3.90;99.90
40434;DHT22;26146;51.114;5.654;2023-03-15T02:39:38;4.00;99.90
40434;DHT22;26146;51.114;5.654;2023-03-15T02:43:40;4.10;99.90
40434;DHT22;26146;51.114;5.654;2023-03-15T02:47:42;4.10;99.90
40434;DHT22;26146;51.114;5.654;2023-03-15T02:51:44;4.20;99.90
40434;DHT22;26146;51.114;5.654;2023-03-15T02:55:45;4.30;99.90
40434;DHT22;26146;51.114;5.654;2023-03-15T02:59:46;4.30;99.90
40434;DHT22;26146;51.114;5.654;2023-03-15T03:03:50;4.40;99.90
40434;DHT22;26146;51.114;5.654;2023-03-15T03:07:51;4.40;99.90
40434;DHT22;26146;51.114;5.654;2023-03-15T03:11:52;4.10;99.90
40434;DHT22;26146;51.114;5.654;2023-03-15T03:15:53;4.10;99.90
40434;DHT22;26146;51.114;5.654;2023-03-15T03:20:00;4.10;99.90
40434;DHT22;26146;51.114;5.654;2023-03-15T03:24:01;4.10;99.90
40434;DHT22;26146;51.114;5.654;2023-03-15T03:28:02;4.30;99.90
40434;DHT22;26146;51.114;5.654;2023-03-15T03:32:04;4.30;99.90
40434;DHT22;26146;51.114;5.654;2023-03-15T03:36:07;4.30;99.90
40434;DHT22;26146;51.114;5.654;2023-03-15T03:40:09;4.40;99.90
40434;DHT22;26146;51.114;5.654;2023-03-15T03:44:10;4.40;99.90
40434;DHT22;26146;51.114;5.654;2023-03-15T03:48:11;4.50;99.90
40434;DHT22;26146;51.114;5.654;2023-03-15T03:52:12;4.60;99.90
40434;DHT22;26146;51.114;5.654;2023-03-15T03:56:15;4.50;99.90
40434;DHT22;26146;51.114;5.654;2023-03-15T04:00:17;4.20;99.90
40434;DHT22;26146;51.114;5.654;2023-03-15T04:04:18;4.10;99.90
40434;DHT22;26146;51.114;5.654;2023-03-15T04:08:19;4.10;99.90
40434;DHT22;26146;51.114;5.654;2023-03-15T04:12:20;4.10;99.90
40434;DHT22;26146;51.114;5.654;2023-03-15T04:16:21;4.10;99.90
40434;DHT22;26146;51.114;5.654;2023-03-15T04:20:25;4.00;99.90
40434;DHT22;26146;51.114;5.654;2023-03-15T04:24:26;3.90;99.90
40434;DHT22;26146;51.114;5.654;2023-03-15T04:28:27;4.00;99.90
40434;DHT22;26146;51.114;5.654;2023-03-15T04:32:30;4.00;99.90
40434;DHT22;26146;51.114;5.654;2023-03-15T04:36:31;4.20;99.90
40434;DHT22;26146;51.114;5.654;2023-03-15T04:40:33;4.30;99.90
40434;DHT22;26146;51.114;5.654;2023-03-15T04:44:34;4.40;99.90
40434;DHT22;26146;51.114;5.654;2023-03-15T04:48:35;4.50;99.90
40434;DHT22;26146;51.114;5.654;2023-03-15T04:52:36;4.30;99.90
40434;DHT22;26146;51.114;5.654;2023-03-15T04:56:37;4.10;99.90
40434;DHT22;26146;51.114;5.654;2023-03-15T05:00:38;4.10;99.90
40434;DHT22;26146;51.114;5.654;2023-03-15T05:04:41;4.20;99.90
40434;DHT22;26146;51.114;5.654;2023-03-15T05:08:43;4.20;99.90
40434;DHT22;26146;51.114;5.654;2023-03-15T05:12:44;4.10;99.90
40434;DHT22;26146;51.114;5.654;2023-03-15T05:16:45;4.00;99.90
40434;DHT22;26146;51.114;5.654;2023-03-15T05:20:48;3.80;99.90
40434;DHT22;26146;51.114;5.654;2023-03-15T05:24:49;3.70;99.90
40434;DHT22;26146;51.114;5.654;2023-03-15T05:28:50;3.50;99.90
40434;DHT22;26146;51.114;5.654;2023-03-15T05:32:52;3.50;99.90
40434;DHT22;26146;51.114;5.654;2023-03-15T05:36:52;3.40;99.90
40434;DHT22;26146;51.114;5.654;2023-03-15T05:40:53;3.40;99.90
40434;DHT22;26146;51.114;5.654;2023-03-15T05:44:55;3.30;99.90
40434;DHT22;26146;51.114;5.654;2023-03-15T05:48:59;3.10;99.90
40434;DHT22;26146;51.114;5.654;2023-03-15T05:53:00;3.10;99.90
40434;DHT22;26146;51.114;5.654;2023-03-15T05:57:01;3.00;99.90
40434;DHT22;26146;51.114;5.654;2023-03-15T06:01:03;3.00;99.90
40434;DHT22;26146;51.114;5.654;2023-03-15T06:05:04;2.90;99.90
40434;DHT22;26146;51.114;5.654;2023-03-15T06:09:05;3.00;99.90
40434;DHT22;26146;51.114;5.654;2023-03-15T06:13:08;3.10;99.90
40434;DHT22;26146;51.114;5.654;2023-03-15T06:17:09;3.00;99.90
40434;DHT22;26146;51.114;5.654;2023-03-15T06:21:10;3.00;99.90
40434;DHT22;26146;51.114;5.654;2023-03-15T06:25:11;2.90;99.90
40434;DHT22;26146;51.114;5.654;2023-03-15T06:29:12;2.90;99.90
40434;DHT22;26146;51.114;5.654;2023-03-15T06:33:21;3.00;99.90
40434;DHT22;26146;51.114;5.654;2023-03-15T06:37:42;3.00;99.90
40434;DHT22;26146;51.114;5.654;2023-03-15T06:41:44;3.10;99.90
40434;DHT22;26146;51.114;5.654;2023-03-15T06:45:45;3.10;99.90
40434;DHT22;26146;51.114;5.654;2023-03-15T06:49:47;3.10;99.90
40434;DHT22;26146;51.114;5.654;2023-03-15T06:53:52;3.20;99.90
40434;DHT22;26146;51.114;5.654;2023-03-15T06:57:53;3.50;99.90
40434;DHT22;26146;51.114;5.654;2023-03-15T07:01:54;3.50;99.90
40434;DHT22;26146;51.114;5.654;2023-03-15T07:05:55;3.60;99.90
40434;DHT22;26146;51.114;5.654;2023-03-15T07:09:59;3.70;99.90
40434;DHT22;26146;51.114;5.654;2023-03-15T07:14:00;3.80;99.90
40434;DHT22;26146;51.114;5.654;2023-03-15T07:18:01;4.00;99.90
40434;DHT22;26146;51.114;5.654;2023-03-15T07:22:02;4.20;99.90
40434;DHT22;26146;51.114;5.654;2023-03-15T07:26:03;4.20;99.90
40434;DHT22;26146;51.114;5.654;2023-03-15T07:30:07;4.50;99.90
40434;DHT22;26146;51.114;5.654;2023-03-15T07:34:09;4.50;99.90
40434;DHT22;26146;51.114;5.654;2023-03-15T07:38:10;4.80;99.90
40434;DHT22;26146;51.114;5.654;2023-03-15T07:42:11;5.10;99.90
40434;DHT22;26146;51.114;5.654;2023-03-15T07:46:12;5.40;99.90
40434;DHT22;26146;51.114;5.654;2023-03-15T07:50:13;5.60;99.90
40434;DHT22;26146;51.114;5.654;2023-03-15T07:54:15;6.00;99.90
40434;DHT22;26146;51.114;5.654;2023-03-15T07:58:16;6.20;99.90
40434;DHT22;26146;51.114;5.654;2023-03-15T08:02:21;6.40;99.90
40434;DHT22;26146;51.114;5.654;2023-03-15T08:06:22;6.50;99.90
40434;DHT22;26146;51.114;5.654;2023-03-15T08:10:26;6.50;99.90
40434;DHT22;26146;51.114;5.654;2023-03-15T08:14:27;6.40;99.90
40434;DHT22;26146;51.114;5.654;2023-03-15T08:18:28;6.50;99.90
40434;DHT22;26146;51.114;5.654;2023-03-15T08:22:30;6.70;99.90
40434;DHT22;26146;51.114;5.654;2023-03-15T08:26:33;6.50;99.90
40434;DHT22;26146;51.114;5.654;2023-03-15T08:30:34;6.60;99.90
40434;DHT22;26146;51.114;5.654;2023-03-15T08:34:35;6.70;99.90
40434;DHT22;26146;51.114;5.654;2023-03-15T08:38:39;6.60;99.90
40434;DHT22;26146;51.114;5.654;2023-03-15T08:42:41;6.80;99.90
40434;DHT22;26146;51.114;5.654;2023-03-15T08:46:42;7.10;99.90
40434;DHT22;26146;51.114;5.654;2023-03-15T08:50:43;7.30;99.90
40434;DHT22;26146;51.114;5.654;2023-03-15T08:54:44;7.50;99.90
40434;DHT22;26146;51.114;5.654;2023-03-15T08:58:45;7.60;99.90
40434;DHT22;26146;51.114;5.654;2023-03-15T09:02:50;7.50;99.90
40434;DHT22;26146;51.114;5.654;2023-03-15T09:06:53;7.60;99.90
40434;DHT22;26146;51.114;5.654;2023-03-15T09:10:57;7.90;99.90
40434;DHT22;26146;51.114;5.654;2023-03-15T09:14:59;8.10;99.90
40434;DHT22;26146;51.114;5.654;2023-03-15T09:19:00;8.00;99.90
40434;DHT22;26146;51.114;5.654;2023-03-15T09:23:01;7.70;99.90
40434;DHT22;26146;51.114;5.654;2023-03-15T09:27:02;7.40;99.90
40434;DHT22;26146;51.114;5.654;2023-03-15T09:31:05;7.40;99.90
40434;DHT22;26146;51.114;5.654;2023-03-15T09:35:09;7.50;99.90
40434;DHT22;26146;51.114;5.654;2023-03-15T09:39:12;7.50;99.90
40434;DHT22;26146;51.114;5.654;2023-03-15T09:43:38;7.70;99.90
40434;DHT22;26146;51.114;5.654;2023-03-15T09:52:25;7.50;99.90
40434;DHT22;26146;51.114;5.654;2023-03-15T09:56:42;7.50;99.90
40434;DHT22;26146;51.114;5.654;2023-03-15T10:05:44;7.90;99.90
40434;DHT22;26146;51.114;5.654;2023-03-15T10:09:43;8.20;99.90
40434;DHT22;26146;51.114;5.654;2023-03-15T10:14:13;8.60;99.90
40434;DHT22;26146;51.114;5.654;2023-03-15T10:26:58;9.10;99.90
40434;DHT22;26146;51.114;5.654;2023-03-15T10:31:13;9.10;99.90
40434;DHT22;26146;51.114;5.654;2023-03-15T10:35:17;9.30;99.90
40434;DHT22;26146;51.114;5.654;2023-03-15T10:39:18;9.50;99.90
40434;DHT22;26146;51.114;5.654;2023-03-15T10:47:20;10.10;99.90
40434;DHT22;26146;51.114;5.654;2023-03-15T10:51:26;10.40;99.90
40434;DHT22;26146;51.114;5.654;2023-03-15T10:55:34;10.70;96.40
40434;DHT22;26146;51.114;5.654;2023-03-15T10:59:36;10.70;97.70
40434;DHT22;26146;51.114;5.654;2023-03-15T11:03:40;10.50;97.00
40434;DHT22;26146;51.114;5.654;2023-03-15T11:07:54;10.40;97.00
40434;DHT22;26146;51.114;5.654;2023-03-15T11:12:04;10.30;97.30
40434;DHT22;26146;51.114;5.654;2023-03-15T11:20:38;9.90;96.80
40434;DHT22;26146;51.114;5.654;2023-03-15T11:24:41;9.70;97.10
40434;DHT22;26146;51.114;5.654;2023-03-15T11:28:48;9.70;96.70
40434;DHT22;26146;51.114;5.654;2023-03-15T11:32:50;9.50;96.30
40434;DHT22;26146;51.114;5.654;2023-03-15T11:37:00;9.30;97.90
40434;DHT22;26146;51.114;5.654;2023-03-15T11:41:19;9.40;98.70
40434;DHT22;26146;51.114;5.654;2023-03-15T11:53:57;10.20;96.90
40434;DHT22;26146;51.114;5.654;2023-03-15T11:58:40;10.50;96.20
40434;DHT22;26146;51.114;5.654;2023-03-15T12:02:54;10.70;95.50
40434;DHT22;26146;51.114;5.654;2023-03-15T12:06:57;11.00;95.10
40434;DHT22;26146;51.114;5.654;2023-03-15T12:11:12;11.00;95.20
40434;DHT22;26146;51.114;5.654;2023-03-15T12:19:33;10.90;94.00
40434;DHT22;26146;51.114;5.654;2023-03-15T12:27:51;11.10;94.70
40434;DHT22;26146;51.114;5.654;2023-03-15T12:36:08;11.20;93.70
40434;DHT22;26146;51.114;5.654;2023-03-15T12:48:31;11.80;92.20
40434;DHT22;26146;51.114;5.654;2023-03-15T12:52:41;11.90;91.50
40434;DHT22;26146;51.114;5.654;2023-03-15T12:56:47;12.10;91.60
40434;DHT22;26146;51.114;5.654;2023-03-15T13:00:52;12.20;88.10
40434;DHT22;26146;51.114;5.654;2023-03-15T13:09:58;12.70;89.50
40434;DHT22;26146;51.114;5.654;2023-03-15T13:18:21;12.40;89.40
40434;DHT22;26146;51.114;5.654;2023-03-15T13:22:36;12.30;82.80
40434;DHT22;26146;51.114;5.654;2023-03-15T13:26:52;12.30;79.60
40434;DHT22;26146;51.114;5.654;2023-03-15T13:30:55;12.30;77.30
40434;DHT22;26146;51.114;5.654;2023-03-15T13:34:58;12.10;81.80
40434;DHT22;26146;51.114;5.654;2023-03-15T13:38:59;12.10;86.30
40434;DHT22;26146;51.114;5.654;2023-03-15T13:43:00;12.10;86.80
40434;DHT22;26146;51.114;5.654;2023-03-15T13:47:01;12.20;85.90
40434;DHT22;26146;51.114;5.654;2023-03-15T13:51:25;12.30;84.30
40434;DHT22;26146;51.114;5.654;2023-03-15T13:55:31;12.30;82.80
40434;DHT22;26146;51.114;5.654;2023-03-15T13:59:52;12.20;80.90
40434;DHT22;26146;51.114;5.654;2023-03-15T14:03:59;12.20;83.90
40434;DHT22;26146;51.114;5.654;2023-03-15T14:08:05;12.30;82.00
40434;DHT22;26146;51.114;5.654;2023-03-15T14:12:17;12.00;79.50
40434;DHT22;26146;51.114;5.654;2023-03-15T14:16:49;11.60;79.00
40434;DHT22;26146;51.114;5.654;2023-03-15T14:21:01;11.60;78.00
40434;DHT22;26146;51.114;5.654;2023-03-15T14:25:02;11.70;79.90
40434;DHT22;26146;51.114;5.654;2023-03-15T14:29:06;12.10;79.40
40434;DHT22;26146;51.114;5.654;2023-03-15T14:33:33;12.20;78.80
40434;DHT22;26146;51.114;5.654;2023-03-15T14:37:40;12.10;79.30
40434;DHT22;26146;51.114;5.654;2023-03-15T14:41:40;11.80;77.10
40434;DHT22;26146;51.114;5.654;2023-03-15T14:45:43;11.80;79.80
40434;DHT22;26146;51.114;5.654;2023-03-15T14:49:45;12.10;81.90
40434;DHT22;26146;51.114;5.654;2023-03-15T14:53:48;12.30;84.30
40434;DHT22;26146;51.114;5.654;2023-03-15T14:57:52;12.30;85.40
40434;DHT22;26146;51.114;5.654;2023-03-15T15:01:56;12.30;83.50
40434;DHT22;26146;51.114;5.654;2023-03-15T15:05:59;12.30;82.20
40434;DHT22;26146;51.114;5.654;2023-03-15T15:10:00;12.30;84.10
40434;DHT22;26146;51.114;5.654;2023-03-15T15:14:01;12.40;81.10
40434;DHT22;26146;51.114;5.654;2023-03-15T15:18:02;12.30;82.90
40434;DHT22;26146;51.114;5.654;2023-03-15T15:22:03;12.40;82.10
40434;DHT22;26146;51.114;5.654;2023-03-15T15:26:05;12.30;81.80
40434;DHT22;26146;51.114;5.654;2023-03-15T15:30:21;12.30;83.20
40434;DHT22;26146;51.114;5.654;2023-03-15T15:34:25;12.30;82.50
40434;DHT22;26146;51.114;5.654;2023-03-15T15:38:30;12.20;81.70
40434;DHT22;26146;51.114;5.654;2023-03-15T15:42:34;12.30;81.50
40434;DHT22;26146;51.114;5.654;2023-03-15T15:46:35;12.40;83.30
40434;DHT22;26146;51.114;5.654;2023-03-15T15:50:38;12.40;83.80
40434;DHT22;26146;51.114;5.654;2023-03-15T15:54:39;12.40;83.60
40434;DHT22;26146;51.114;5.654;2023-03-15T15:58:41;12.30;83.40
40434;DHT22;26146;51.114;5.654;2023-03-15T16:02:42;12.30;83.80
40434;DHT22;26146;51.114;5.654;2023-03-15T16:06:47;12.30;82.90
40434;DHT22;26146;51.114;5.654;2023-03-15T16:10:51;12.20;82.70
40434;DHT22;26146;51.114;5.654;2023-03-15T16:14:57;12.20;82.30
40434;DHT22;26146;51.114;5.654;2023-03-15T16:18:58;12.00;84.10
40434;DHT22;26146;51.114;5.654;2023-03-15T16:22:59;11.90;82.70
40434;DHT22;26146;51.114;5.654;2023-03-15T16:27:05;11.80;83.50
40434;DHT22;26146;51.114;5.654;2023-03-15T16:31:06;11.80;82.80
40434;DHT22;26146;51.114;5.654;2023-03-15T16:35:09;11.80;83.10
40434;DHT22;26146;51.114;5.654;2023-03-15T16:39:15;11.60;83.40
40434;DHT22;26146;51.114;5.654;2023-03-15T16:43:17;11.50;83.20
40434;DHT22;26146;51.114;5.654;2023-03-15T16:47:18;11.40;83.40
40434;DHT22;26146;51.114;5.654;2023-03-15T16:51:19;11.20;84.10
40434;DHT22;26146;51.114;5.654;2023-03-15T16:55:26;11.00;85.00
40434;DHT22;26146;51.114;5.654;2023-03-15T16:59:27;10.70;87.10
40434;DHT22;26146;51.114;5.654;2023-03-15T17:03:28;10.60;86.60
40434;DHT22;26146;51.114;5.654;2023-03-15T17:07:34;10.50;87.60
40434;DHT22;26146;51.114;5.654;2023-03-15T17:11:40;10.30;89.30
40434;DHT22;26146;51.114;5.654;2023-03-15T17:15:44;10.20;89.70
40434;DHT22;26146;51.114;5.654;2023-03-15T17:19:47;10.10;89.90
40434;DHT22;26146;51.114;5.654;2023-03-15T17:23:49;10.00;90.40
40434;DHT22;26146;51.114;5.654;2023-03-15T17:27:50;9.90;91.10
40434;DHT22;26146;51.114;5.654;2023-03-15T17:31:51;9.70;91.10
40434;DHT22;26146;51.114;5.654;2023-03-15T17:35:52;9.70;91.80
40434;DHT22;26146;51.114;5.654;2023-03-15T17:39:59;9.70;92.10
40434;DHT22;26146;51.114;5.654;2023-03-15T17:44:00;9.60;92.60
40434;DHT22;26146;51.114;5.654;2023-03-15T17:48:01;9.50;93.50
40434;DHT22;26146;51.114;5.654;2023-03-15T17:52:03;9.40;93.60
40434;DHT22;26146;51.114;5.654;2023-03-15T17:56:09;9.30;93.90
40434;DHT22;26146;51.114;5.654;2023-03-15T18:00:14;9.30;93.90
40434;DHT22;26146;51.114;5.654;2023-03-15T18:04:17;9.30;94.40
40434;DHT22;26146;51.114;5.654;2023-03-15T18:08:22;9.20;94.80
40434;DHT22;26146;51.114;5.654;2023-03-15T18:12:24;9.10;94.70
40434;DHT22;26146;51.114;5.654;2023-03-15T18:16:26;9.10;95.10
40434;DHT22;26146;51.114;5.654;2023-03-15T18:20:27;9.10;95.10
40434;DHT22;26146;51.114;5.654;2023-03-15T18:24:28;9.00;95.70
40434;DHT22;26146;51.114;5.654;2023-03-15T18:28:33;8.90;95.70
40434;DHT22;26146;51.114;5.654;2023-03-15T18:32:34;9.00;95.80
40434;DHT22;26146;51.114;5.654;2023-03-15T18:36:38;8.90;96.20
40434;DHT22;26146;51.114;5.654;2023-03-15T18:40:41;9.00;96.30
40434;DHT22;26146;51.114;5.654;2023-03-15T18:44:42;8.90;96.60
40434;DHT22;26146;51.114;5.654;2023-03-15T18:48:45;8.80;96.70
40434;DHT22;26146;51.114;5.654;2023-03-15T18:52:46;8.80;97.30
40434;DHT22;26146;51.114;5.654;2023-03-15T18:56:47;8.70;97.90
40434;DHT22;26146;51.114;5.654;2023-03-15T19:00:48;8.60;98.30
40434;DHT22;26146;51.114;5.654;2023-03-15T19:04:49;8.60;98.50
40434;DHT22;26146;51.114;5.654;2023-03-15T19:08:50;8.40;99.50
40434;DHT22;26146;51.114;5.654;2023-03-15T19:12:54;8.30;99.80
40434;DHT22;26146;51.114;5.654;2023-03-15T19:16:57;8.30;99.90
40434;DHT22;26146;51.114;5.654;2023-03-15T19:20:59;8.30;99.90
40434;DHT22;26146;51.114;5.654;2023-03-15T19:25:04;8.30;99.90
40434;DHT22;26146;51.114;5.654;2023-03-15T19:29:07;8.20;99.90
40434;DHT22;26146;51.114;5.654;2023-03-15T19:33:18;8.10;99.90
40434;DHT22;26146;51.114;5.654;2023-03-15T19:37:19;8.20;99.70
40434;DHT22;26146;51.114;5.654;2023-03-15T19:41:20;8.10;99.90
40434;DHT22;26146;51.114;5.654;2023-03-15T19:45:23;8.00;99.90
40434;DHT22;26146;51.114;5.654;2023-03-15T19:49:24;8.10;99.90
40434;DHT22;26146;51.114;5.654;2023-03-15T19:53:26;8.00;99.90
40434;DHT22;26146;51.114;5.654;2023-03-15T19:57:27;7.90;99.90
40434;DHT22;26146;51.114;5.654;2023-03-15T20:01:28;8.00;99.90
40434;DHT22;26146;51.114;5.654;2023-03-15T20:05:29;8.00;99.90
40434;DHT22;26146;51.114;5.654;2023-03-15T20:09:30;7.90;99.90
40434;DHT22;26146;51.114;5.654;2023-03-15T20:13:35;8.00;99.90
40434;DHT22;26146;51.114;5.654;2023-03-15T20:17:37;8.00;99.90
40434;DHT22;26146;51.114;5.654;2023-03-15T20:21:38;7.80;99.90
40434;DHT22;26146;51.114;5.654;2023-03-15T20:25:39;7.60;99.90
40434;DHT22;26146;51.114;5.654;2023-03-15T20:29:40;7.50;99.90
40434;DHT22;26146;51.114;5.654;2023-03-15T20:33:42;7.40;99.90
40434;DHT22;26146;51.114;5.654;2023-03-15T20:37:45;7.40;99.90
40434;DHT22;26146;51.114;5.654;2023-03-15T20:41:46;7.50;99.90
40434;DHT22;26146;51.114;5.654;2023-03-15T20:45:47;7.50;99.90
40434;DHT22;26146;51.114;5.654;2023-03-15T20:49:48;7.50;99.90
40434;DHT22;26146;51.114;5.654;2023-03-15T20:53:49;7.40;99.90
40434;DHT22;26146;51.114;5.654;2023-03-15T20:57:53;7.40;99.90
40434;DHT22;26146;51.114;5.654;2023-03-15T21:01:54;7.40;99.90
40434;DHT22;26146;51.114;5.654;2023-03-15T21:05:55;7.30;99.90
40434;DHT22;26146;51.114;5.654;2023-03-15T21:09:58;7.20;99.90
40434;DHT22;26146;51.114;5.654;2023-03-15T21:14:00;7.20;99.90
40434;DHT22;26146;51.114;5.654;2023-03-15T21:18:03;7.00;99.90
40434;DHT22;26146;51.114;5.654;2023-03-15T21:22:05;6.90;99.90
40434;DHT22;26146;51.114;5.654;2023-03-15T21:26:11;7.10;99.90
40434;DHT22;26146;51.114;5.654;2023-03-15T21:30:13;6.90;99.90
40434;DHT22;26146;51.114;5.654;2023-03-15T21:34:14;6.70;99.90
40434;DHT22;26146;51.114;5.654;2023-03-15T21:38:17;6.70;99.90
40434;DHT22;26146;51.114;5.654;2023-03-15T21:42:19;6.80;99.90
40434;DHT22;26146;51.114;5.654;2023-03-15T21:46:20;6.70;99.90
40434;DHT22;26146;51.114;5.654;2023-03-15T21:50:21;6.70;99.90
40434;DHT22;26146;51.114;5.654;2023-03-15T21:54:22;6.80;99.90
40434;DHT22;26146;51.114;5.654;2023-03-15T21:58:25;6.70;99.90
40434;DHT22;26146;51.114;5.654;2023-03-15T22:02:26;6.60;99.90
40434;DHT22;26146;51.114;5.654;2023-03-15T22:06:27;6.30;99.90
40434;DHT22;26146;51.114;5.654;2023-03-15T22:10:28;6.30;99.90
40434;DHT22;26146;51.114;5.654;2023-03-15T22:14:29;6.10;99.90
40434;DHT22;26146;51.114;5.654;2023-03-15T22:18:30;6.30;99.90
40434;DHT22;26146;51.114;5.654;2023-03-15T22:22:31;6.20;99.90
40434;DHT22;26146;51.114;5.654;2023-03-15T22:26:32;6.20;99.90
40434;DHT22;26146;51.114;5.654;2023-03-15T22:30:33;6.20;99.90
40434;DHT22;26146;51.114;5.654;2023-03-15T22:34:36;6.20;99.90
40434;DHT22;26146;51.114;5.654;2023-03-15T22:38:37;6.20;99.90
40434;DHT22;26146;51.114;5.654;2023-03-15T22:42:39;6.20;99.90
40434;DHT22;26146;51.114;5.654;2023-03-15T22:46:40;6.10;99.90
40434;DHT22;26146;51.114;5.654;2023-03-15T22:50:41;6.10;99.90
40434;DHT22;26146;51.114;5.654;2023-03-15T22:54:42;6.20;99.90
40434;DHT22;26146;51.114;5.654;2023-03-15T22:58:43;6.20;99.90
40434;DHT22;26146;51.114;5.654;2023-03-15T23:02:44;6.20;99.90
40434;DHT22;26146;51.114;5.654;2023-03-15T23:06:45;6.10;99.90
40434;DHT22;26146;51.114;5.654;2023-03-15T23:10:46;6.20;99.90
40434;DHT22;26146;51.114;5.654;2023-03-15T23:14:47;6.20;99.90
40434;DHT22;26146;51.114;5.654;2023-03-15T23:18:49;6.30;99.90
40434;DHT22;26146;51.114;5.654;2023-03-15T23:22:51;6.40;99.90
40434;DHT22;26146;51.114;5.654;2023-03-15T23:26:53;6.40;99.90
40434;DHT22;26146;51.114;5.654;2023-03-15T23:31:00;6.40;99.90
40434;DHT22;26146;51.114;5.654;2023-03-15T23:35:02;6.50;99.90
40434;DHT22;26146;51.114;5.654;2023-03-15T23:39:03;6.50;99.90
40434;DHT22;26146;51.114;5.654;2023-03-15T23:43:05;6.60;99.90
40434;DHT22;26146;51.114;5.654;2023-03-15T23:47:08;6.60;99.90
40434;DHT22;26146;51.114;5.654;2023-03-15T23:51:09;6.60;99.90
40434;DHT22;26146;51.114;5.654;2023-03-15T23:55:12;6.60;99.90
40434;DHT22;26146;51.114;5.654;2023-03-15T23:59:13;6.70;99.90
